createdAt,value
2022-11-19T00:00:56.038Z,100604.97
2022-11-19T00:06:23.544Z,100602.16
2022-11-19T00:12:04.126Z,100593.75
2022-11-19T00:17:25.908Z,100603.13
2022-11-19T00:22:52.551Z,100595.31
2022-11-19T00:28:14.206Z,100600.81
2022-11-19T00:33:36.850Z,100610.75
2022-11-19T00:38:58.463Z,100605.72
2022-11-19T00:44:20.200Z,100608.44
2022-11-19T00:49:42.385Z,100608.97
2022-11-19T00:55:04.383Z,100603.06
2022-11-19T01:00:26.138Z,100615.53
2022-11-19T01:05:47.803Z,100616.91
2022-11-19T01:11:12.752Z,100627.63
2022-11-19T01:16:37.599Z,100624.53
2022-11-19T01:21:59.359Z,100634.78
2022-11-19T01:27:21.034Z,100641.09
2022-11-19T01:32:42.790Z,100642.47
2022-11-19T01:38:05.586Z,100642.69
2022-11-19T01:43:45.093Z,100642.97
2022-11-19T01:49:06.783Z,100649.00
2022-11-19T01:54:36.064Z,100657.59
2022-11-19T01:59:57.762Z,100648.97
2022-11-19T02:05:20.330Z,100653.91
2022-11-19T02:10:41.942Z,100653.31
2022-11-19T02:16:14.229Z,100652.75
2022-11-19T02:21:53.815Z,100646.59
2022-11-19T02:27:18.144Z,100654.34
2022-11-19T02:32:58.731Z,100657.09
2022-11-19T02:38:39.836Z,100657.63
2022-11-19T02:44:29.184Z,100653.41
2022-11-19T02:49:54.863Z,100651.75
2022-11-19T02:55:21.070Z,100663.09
2022-11-19T03:01:08.703Z,100667.53
2022-11-19T03:06:32.845Z,100668.03
2022-11-19T03:12:07.481Z,100677.44
2022-11-19T03:17:39.583Z,100684.34
2022-11-19T03:23:18.820Z,100687.94
2022-11-19T03:28:41.891Z,100691.22
2022-11-19T03:34:10.749Z,100694.25
2022-11-19T03:39:36.285Z,100701.97
2022-11-19T03:45:03.084Z,100695.25
2022-11-19T03:50:42.138Z,100701.63
2022-11-19T03:56:07.458Z,100728.19
2022-11-19T04:01:29.290Z,100733.13
2022-11-19T04:06:51.377Z,100742.53
2022-11-19T04:12:21.494Z,100742.78
2022-11-19T04:17:43.187Z,100745.78
2022-11-19T04:23:04.860Z,100747.13
2022-11-19T04:28:26.498Z,100750.13
2022-11-19T04:33:48.177Z,100764.25
2022-11-19T04:39:12.461Z,100777.50
2022-11-19T04:44:34.400Z,100768.59
2022-11-19T04:49:56.017Z,100772.47
2022-11-19T04:55:17.760Z,100776.31
2022-11-19T05:00:39.540Z,100774.63
2022-11-19T05:06:01.256Z,100778.47
2022-11-19T05:11:22.917Z,100784.84
2022-11-19T05:16:44.566Z,100785.34
2022-11-19T05:22:06.209Z,100780.06
2022-11-19T05:27:28.010Z,100796.94
2022-11-19T05:32:49.680Z,100796.31
2022-11-19T05:38:11.412Z,100801.28
2022-11-19T05:43:33.108Z,100803.22
2022-11-19T05:48:54.870Z,100814.50
2022-11-19T05:54:16.636Z,100823.06
2022-11-19T05:59:43.533Z,100823.31
2022-11-19T06:05:06.053Z,100838.25
2022-11-19T06:10:27.948Z,100843.19
2022-11-19T06:15:49.598Z,100850.91
2022-11-19T06:21:12.440Z,100854.75
2022-11-19T06:26:34.311Z,100868.84
2022-11-19T06:31:55.980Z,100875.47
2022-11-19T06:37:17.664Z,100876.56
2022-11-19T06:42:39.447Z,100881.25
2022-11-19T06:48:01.096Z,100890.88
2022-11-19T06:53:23.041Z,100901.03
2022-11-19T06:58:44.782Z,100907.44
2022-11-19T07:04:06.467Z,100908.09
2022-11-19T07:09:28.201Z,100912.88
2022-11-19T07:14:49.838Z,100914.13
2022-11-19T07:20:11.773Z,100923.31
2022-11-19T07:25:33.481Z,100921.28
2022-11-19T07:30:55.122Z,100923.38
2022-11-19T07:36:18.578Z,100932.72
2022-11-19T07:41:59.218Z,100945.34
2022-11-19T07:47:22.063Z,100956.25
2022-11-19T07:52:43.887Z,100966.94
2022-11-19T07:58:05.879Z,100966.47
2022-11-19T08:03:27.651Z,100967.97
2022-11-19T08:08:49.406Z,100970.03
2022-11-19T08:14:14.245Z,100981.50
2022-11-19T08:19:35.927Z,100989.16
2022-11-19T08:24:57.582Z,100988.44
2022-11-19T08:30:19.364Z,100994.38
2022-11-19T08:35:41.111Z,101009.19
2022-11-19T08:41:21.599Z,101007.41
2022-11-19T08:46:44.163Z,101021.13
2022-11-19T08:52:05.796Z,101021.25
2022-11-19T08:57:27.557Z,101018.34
2022-11-19T09:02:49.268Z,101010.28
2022-11-19T09:08:10.988Z,101016.31
2022-11-19T09:13:32.862Z,101036.19
2022-11-19T09:18:54.589Z,101042.19
2022-11-19T09:24:16.271Z,101045.44
2022-11-19T09:29:37.927Z,101049.44
2022-11-19T09:35:00.158Z,101039.56
2022-11-19T09:40:23.432Z,101054.00
2022-11-19T09:45:53.906Z,101052.09
2022-11-19T09:51:21.702Z,101069.28
2022-11-19T09:56:46.004Z,101070.53
2022-11-19T10:02:17.392Z,101080.25
2022-11-19T10:07:54.718Z,101079.50
2022-11-19T10:13:37.524Z,101090.00
2022-11-19T10:19:22.801Z,101091.84
2022-11-19T10:24:50.947Z,101092.00
2022-11-19T10:30:16.570Z,101085.25
2022-11-19T10:35:42.842Z,101091.31
2022-11-19T10:41:13.962Z,101104.91
2022-11-19T10:46:36.053Z,101088.63
2022-11-19T10:51:58.145Z,101090.63
2022-11-19T10:57:21.660Z,101080.75
2022-11-19T11:02:48.384Z,101080.25
2022-11-19T11:08:12.773Z,101098.31
2022-11-19T11:13:52.850Z,101084.13
2022-11-19T11:19:22.189Z,101089.31
2022-11-19T11:24:44.264Z,101086.94
2022-11-19T11:30:11.997Z,101083.69
2022-11-19T11:35:37.885Z,101099.31
2022-11-19T11:42:02.063Z,101094.63
2022-11-19T11:46:57.315Z,101102.75
2022-11-19T11:52:22.736Z,101105.88
2022-11-19T11:58:02.397Z,101106.88
2022-11-19T12:03:25.418Z,101098.91
2022-11-19T12:08:55.850Z,101104.56
2022-11-19T12:14:25.403Z,101101.09
2022-11-19T12:19:59.407Z,101093.78
2022-11-19T12:25:34.473Z,101085.06
2022-11-19T12:31:31.421Z,101084.97
2022-11-19T12:37:14.432Z,101085.94
2022-11-19T12:43:12.060Z,101095.56
2022-11-19T12:48:54.614Z,101092.06
2022-11-19T12:54:44.747Z,101094.34
2022-11-19T13:05:49.862Z,101107.16
2022-11-19T13:11:24.377Z,101098.63
2022-11-19T13:16:46.745Z,101102.63
2022-11-19T13:22:15.469Z,101097.38
2022-11-19T13:27:37.417Z,101101.63
2022-11-19T13:33:17.997Z,101095.13
2022-11-19T13:38:48.453Z,101100.31
2022-11-19T13:44:29.333Z,101102.16
2022-11-19T13:50:23.285Z,101103.16
2022-11-19T13:55:46.214Z,101095.72
2022-11-19T14:01:14.414Z,101101.94
2022-11-19T14:06:51.061Z,101096.78
2022-11-19T14:12:34.093Z,101101.88
2022-11-19T14:18:51.528Z,101101.22
2022-11-19T14:24:43.539Z,101103.25
2022-11-19T14:30:19.973Z,101112.59
2022-11-19T14:35:41.893Z,101110.78
2022-11-19T14:41:17.451Z,101116.56
2022-11-19T14:46:42.781Z,101123.44
2022-11-19T14:52:33.667Z,101127.19
2022-11-19T14:57:57.145Z,101140.06
2022-11-19T15:03:23.675Z,101134.75
2022-11-19T15:09:02.039Z,101142.19
2022-11-19T15:14:29.592Z,101149.84
2022-11-19T15:20:04.475Z,101141.75
2022-11-19T15:26:01.351Z,101147.50
2022-11-19T15:31:35.562Z,101146.38
2022-11-19T15:37:03.526Z,101149.69
2022-11-19T15:42:34.669Z,101159.50
2022-11-19T15:48:10.755Z,101159.88
2022-11-19T15:53:32.338Z,101154.03
2022-11-19T15:58:54.290Z,101158.28
2022-11-19T16:04:17.600Z,101156.66
2022-11-19T16:09:39.484Z,101160.59
2022-11-19T16:15:19.834Z,101174.22
2022-11-19T16:20:45.787Z,101167.41
2022-11-19T16:26:07.512Z,101173.34
2022-11-19T16:31:31.165Z,101169.28
2022-11-19T16:36:53.438Z,101172.88
2022-11-19T16:42:18.135Z,101176.00
2022-11-19T16:47:50.246Z,101173.97
2022-11-19T16:53:11.916Z,101175.44
2022-11-19T16:58:33.591Z,101173.88
2022-11-19T17:04:13.613Z,101179.91
2022-11-19T17:09:47.492Z,101179.91
2022-11-19T17:15:33.403Z,101184.72
2022-11-19T17:21:21.589Z,101189.59
2022-11-19T17:26:48.269Z,101190.44
2022-11-19T17:32:10.776Z,101179.56
2022-11-19T17:37:32.412Z,101196.03
2022-11-19T17:43:12.893Z,101185.69
2022-11-19T17:48:35.355Z,101201.53
2022-11-19T17:53:58.015Z,101198.91
2022-11-19T17:59:19.750Z,101198.69
2022-11-19T18:04:45.957Z,101197.38
2022-11-19T18:10:08.496Z,101189.94
2022-11-19T18:15:30.977Z,101203.09
2022-11-19T18:20:55.442Z,101185.03
2022-11-19T18:26:22.799Z,101188.75
2022-11-19T18:31:48.789Z,101187.22
2022-11-19T18:37:10.893Z,101188.16
2022-11-19T18:42:32.606Z,101192.09
2022-11-19T18:47:54.323Z,101191.06
2022-11-19T18:53:16.035Z,101183.63
2022-11-19T18:58:37.688Z,101188.72
2022-11-19T19:03:59.372Z,101187.19
2022-11-19T19:09:21.810Z,101188.69
2022-11-19T19:14:49.556Z,101195.81
2022-11-19T19:20:11.786Z,101192.56
2022-11-19T19:25:33.446Z,101192.72
2022-11-19T19:30:59.069Z,101194.53
2022-11-19T19:36:22.034Z,101209.16
2022-11-19T19:41:43.929Z,101200.81
2022-11-19T19:47:05.713Z,101204.56
2022-11-19T19:52:27.499Z,101199.13
2022-11-19T19:57:49.174Z,101202.50
2022-11-19T20:03:10.854Z,101202.50
2022-11-19T20:08:34.453Z,101206.97
2022-11-19T20:13:57.451Z,101217.06
2022-11-19T20:19:19.102Z,101211.97
2022-11-19T20:24:40.777Z,101220.84
2022-11-19T20:30:03.454Z,101219.13
2022-11-19T20:35:25.489Z,101224.19
2022-11-19T20:41:33.208Z,101225.00
2022-11-19T20:46:55.881Z,101217.09
2022-11-19T20:52:19.212Z,101222.16
2022-11-19T20:57:40.896Z,101230.56
2022-11-19T21:03:02.631Z,101224.28
2022-11-19T21:08:27.758Z,101225.00
2022-11-19T21:13:49.440Z,101213.63
2022-11-19T21:19:13.536Z,101215.81
2022-11-19T21:24:35.181Z,101207.63
2022-11-19T21:29:56.878Z,101200.28
2022-11-19T21:35:18.674Z,101198.75
2022-11-19T21:40:40.975Z,101207.22
2022-11-19T21:46:07.419Z,101212.91
2022-11-19T21:51:29.258Z,101218.28
2022-11-19T21:56:50.998Z,101223.34
2022-11-19T22:02:13.592Z,101233.50
2022-11-19T22:07:35.351Z,101225.56
2022-11-19T22:12:58.705Z,101237.41
2022-11-19T22:18:20.328Z,101229.78
2022-11-19T22:23:42.077Z,101224.63
2022-11-19T22:29:03.844Z,101224.50
2022-11-19T22:34:25.661Z,101221.00
2022-11-19T22:39:47.381Z,101211.97
2022-11-19T22:45:09.422Z,101207.38
2022-11-19T22:50:31.065Z,101198.97
2022-11-19T22:55:52.779Z,101196.06
2022-11-19T23:01:23.214Z,101192.66
2022-11-19T23:06:44.912Z,101184.84
2022-11-19T23:12:25.600Z,101185.56
2022-11-19T23:17:47.244Z,101186.53
2022-11-19T23:23:08.901Z,101193.41
2022-11-19T23:28:32.717Z,101193.88
2022-11-19T23:33:59.046Z,101200.97
2022-11-19T23:39:21.576Z,101196.16
2022-11-19T23:44:43.381Z,101190.25
2022-11-19T23:50:05.398Z,101186.88
2022-11-19T23:55:27.115Z,101191.19
